Time;durP1;ratioP1;P1;durP2;ratioP2;P2;SDS_P1;SDS_P2;PMS_P1;PMS_P2;Temp;Humidity;BMP_temperature;BMP_pressure;BME280_temperature;BME280_humidity;BME280_pressure;Samples;Min_cycle;Max_cycle;Signal;HPM_P1;HPM_P2
2023/05/05 00:01:05;;;;;;;4.32;3.15;;;;;;;17.65;61.49;101390.81;6212604;23;20008;-54
2023/05/05 00:03:33;;;;;;;5.60;3.58;;;;;;;17.65;61.71;101401.59;6212985;23;20016;-54
2023/05/05 00:05:58;;;;;;;3.72;2.97;;;;;;;17.65;61.51;101400.72;6213094;23;20004;-54
2023/05/05 00:08:24;;;;;;;3.97;2.80;;;;;;;17.65;61.54;101400.72;6212850;23;20005;-55
2023/05/05 00:10:51;;;;;;;3.65;3.10;;;;;;;17.64;61.84;101401.72;6212716;23;20012;-55
2023/05/05 00:13:18;;;;;;;4.57;3.17;;;;;;;17.64;61.24;101399.88;6212324;23;20044;-55
2023/05/05 00:15:46;;;;;;;5.05;2.50;;;;;;;17.64;61.41;101405.25;6212529;23;20019;-54
2023/05/05 00:18:13;;;;;;;3.92;2.78;;;;;;;17.64;61.57;101404.41;6212454;23;20000;-55
2023/05/05 00:20:39;;;;;;;4.90;2.90;;;;;;;17.64;61.64;101420.56;6212539;23;20007;-54
2023/05/05 00:23:04;;;;;;;3.25;2.95;;;;;;;17.65;61.50;101414.16;6212524;23;20013;-55
2023/05/05 00:25:30;;;;;;;2.88;2.55;;;;;;;17.66;61.75;101408.66;6212694;23;20009;-55
2023/05/05 00:27:55;;;;;;;3.38;2.75;;;;;;;17.65;61.75;101422.25;6213171;23;20015;-54
2023/05/05 00:30:21;;;;;;;2.95;2.63;;;;;;;17.65;61.65;101422.25;6212457;23;20001;-54
2023/05/05 00:32:47;;;;;;;5.85;2.90;;;;;;;17.65;61.61;101422.25;6212236;23;20032;-54
2023/05/05 00:35:14;;;;;;;4.20;2.88;;;;;;;17.64;61.50;101417.88;6212468;23;20087;-55
2023/05/05 00:37:39;;;;;;;3.83;2.80;;;;;;;17.64;61.70;101426.78;6212520;23;20011;-54
2023/05/05 00:40:05;;;;;;;4.47;3.33;;;;;;;17.64;61.59;101421.41;6212652;23;20016;-55
2023/05/05 00:42:41;;;;;;;3.25;2.95;;;;;;;17.65;61.54;101408.78;6212674;23;20312;-54
2023/05/05 00:45:08;;;;;;;3.45;2.92;;;;;;;17.63;61.65;101408.94;6212242;23;20007;-55
2023/05/05 00:47:33;;;;;;;3.90;3.40;;;;;;;17.63;61.43;101408.94;6212626;23;20076;-54
2023/05/05 00:49:59;;;;;;;3.58;2.83;;;;;;;17.63;61.60;101414.31;6213025;23;20032;-54
2023/05/05 00:52:25;;;;;;;3.80;2.83;;;;;;;17.63;61.65;101421.53;6212324;23;20008;-54
2023/05/05 00:54:51;;;;;;;4.25;3.53;;;;;;;17.63;61.67;101424.22;6212604;23;20059;-54
2023/05/05 00:57:17;;;;;;;4.75;3.20;;;;;;;17.63;61.62;101430.50;6212150;23;20423;-54
2023/05/05 00:59:43;;;;;;;4.85;3.35;;;;;;;17.63;61.52;101427.78;6212242;23;20005;-55
2023/05/05 01:02:09;;;;;;;5.47;3.08;;;;;;;17.63;61.65;101426.91;6212309;23;20001;-55
2023/05/05 01:04:34;;;;;;;3.55;3.20;;;;;;;17.64;61.55;101431.34;6212514;23;20012;-55
2023/05/05 01:07:18;;;;;;;3.60;3.30;;;;;;;17.63;61.39;101424.22;6212865;23;20059;-55
2023/05/05 01:10:11;;;;;;;4.45;3.47;;;;;;;17.65;61.43;101424.94;6212273;23;20537;-54
2023/05/05 01:13:14;;;;;;;5.13;2.97;;;;;;;17.65;61.45;101423.13;6211844;23;20040;-54
2023/05/05 01:15:55;;;;;;;4.97;3.17;;;;;;;17.64;61.33;101431.34;6062453;23;20011;-54
2023/05/05 01:18:32;;;;;;;4.50;3.45;;;;;;;17.63;61.41;101435.00;6198914;23;20013;-54
2023/05/05 01:21:22;;;;;;;3.95;3.65;;;;;;;17.65;61.26;101433.03;6212732;23;20054;-54
2023/05/05 01:24:09;;;;;;;4.10;3.70;;;;;;;17.65;61.23;101430.31;6212354;23;20001;-55
2023/05/05 01:26:51;;;;;;;4.40;3.92;;;;;;;17.62;61.45;101444.91;6212429;23;20020;-55
2023/05/05 01:29:22;;;;;;;3.70;3.17;;;;;;;17.61;61.34;101440.53;6212129;23;20007;-54
2023/05/05 01:31:52;;;;;;;;;;;;;;;17.72;61.03;101439.59;6212849;23;20012;-54
2023/05/05 01:34:26;;;;;;;5.25;3.10;;;;;;;17.63;61.23;101417.03;6212365;23;19911;-55
2023/05/05 01:37:00;;;;;;;5.03;3.65;;;;;;;17.61;61.06;101416.31;6212100;23;20008;-55
2023/05/05 01:39:30;;;;;;;6.90;2.97;;;;;;;17.61;61.29;101410.91;6212127;23;20010;-55
2023/05/05 01:41:58;;;;;;;4.50;3.80;;;;;;;17.61;61.18;101410.03;6212125;23;20005;-54
2023/05/05 01:44:27;;;;;;;3.60;3.30;;;;;;;17.61;61.38;101426.19;6212186;23;20374;-55
2023/05/05 01:46:53;;;;;;;3.30;3.00;;;;;;;17.61;61.41;101436.97;6213574;23;20023;-54
2023/05/05 01:49:19;;;;;;;3.42;2.88;;;;;;;17.59;61.32;101435.28;6213974;23;20026;-54
2023/05/05 01:51:46;;;;;;;3.10;2.80;;;;;;;17.60;61.08;101438.81;6213920;23;20079;-54
2023/05/05 01:54:14;;;;;;;5.45;3.60;;;;;;;17.59;61.25;101429.88;6213958;23;20004;-55
2023/05/05 01:56:41;;;;;;;4.78;3.00;;;;;;;17.59;61.28;101421.81;6213769;23;20083;-54
2023/05/05 01:59:08;;;;;;;3.28;2.88;;;;;;;17.59;61.25;101424.50;6213760;23;20004;-54
2023/05/05 02:01:39;;;;;;;3.45;2.70;;;;;;;17.59;61.22;101429.88;6213807;23;20024;-54
2023/05/05 02:04:08;;;;;;;3.22;2.90;;;;;;;17.59;61.15;101427.19;6213794;23;20000;-54
2023/05/05 02:06:34;;;;;;;2.95;2.65;;;;;;;17.60;61.29;101422.66;6214463;23;20079;-54
2023/05/05 02:09:01;;;;;;;5.60;3.10;;;;;;;17.59;61.03;101437.09;6214555;23;20439;-54
2023/05/05 02:11:27;;;;;;;4.10;2.55;;;;;;;17.59;61.20;101434.41;6213626;23;20088;-55
2023/05/05 02:13:54;;;;;;;2.70;2.50;;;;;;;17.59;61.15;101437.09;6213517;23;20012;-55
2023/05/05 02:16:21;;;;;;;2.75;2.55;;;;;;;17.58;61.09;101433.56;6213928;23;20009;-54
2023/05/05 02:18:48;;;;;;;3.22;2.92;;;;;;;17.59;61.34;101431.69;6213550;23;20000;-54
2023/05/05 02:21:16;;;;;;;5.80;2.60;;;;;;;17.59;61.09;101435.28;6213471;23;20000;-54
2023/05/05 02:23:44;;;;;;;3.65;2.55;;;;;;;17.59;61.06;101435.28;6213650;23;20011;-54
2023/05/05 02:26:14;;;;;;;2.60;2.40;;;;;;;17.58;61.28;101444.31;6213643;23;20009;-55
2023/05/05 02:28:47;;;;;;;3.38;2.40;;;;;;;17.59;61.32;101448.75;6213493;23;20036;-54
2023/05/05 02:31:15;;;;;;;3.83;2.63;;;;;;;17.59;61.24;101450.56;6213536;23;20036;-54
2023/05/05 02:33:43;;;;;;;5.03;2.22;;;;;;;17.59;61.26;101454.13;6213966;23;20442;-55
2023/05/05 02:36:22;;;;;;;2.25;2.03;;;;;;;17.59;61.09;101448.75;6213902;23;20366;-55
2023/05/05 02:38:53;;;;;;;2.55;2.30;;;;;;;17.58;61.13;101449.72;6213800;23;20492;-54
2023/05/05 02:41:20;;;;;;;2.65;2.45;;;;;;;17.58;61.07;101444.31;6213317;23;20051;-54
2023/05/05 02:43:48;;;;;;;2.38;2.20;;;;;;;17.57;61.07;101450.72;6213372;23;20023;-54
2023/05/05 02:46:13;;;;;;;2.55;2.35;;;;;;;17.57;61.16;101458.78;6213191;23;20316;-55
2023/05/05 02:48:39;;;;;;;4.25;2.63;;;;;;;17.57;61.24;101458.78;6213277;23;20012;-54
2023/05/05 02:51:06;;;;;;;2.80;2.50;;;;;;;17.57;61.03;101472.25;6214220;23;20479;-54
2023/05/05 02:53:32;;;;;;;2.80;2.50;;;;;;;17.57;61.05;101472.25;6213867;23;20016;-55
2023/05/05 02:56:29;;;;;;;2.30;2.10;;;;;;;17.60;60.83;101473.81;6213291;23;20005;-54
2023/05/05 02:59:20;;;;;;;2.50;2.30;;;;;;;17.59;60.95;101466.72;6202394;23;20523;-55
2023/05/05 03:02:08;;;;;;;2.80;2.50;;;;;;;17.59;60.94;101467.59;6213434;23;20005;-54
2023/05/05 03:04:44;;;;;;;3.45;2.22;;;;;;;17.58;60.83;101463.16;6213777;23;20235;-54
2023/05/05 03:07:23;;;;;;;2.67;2.40;;;;;;;17.58;60.78;101455.09;6213310;23;20093;-54
2023/05/05 03:10:01;;;;;;;2.20;2.08;;;;;;;17.58;60.94;101460.47;6213144;23;20079;-54
2023/05/05 03:12:35;;;;;;;2.50;2.30;;;;;;;17.57;60.92;101461.47;6213007;23;20515;-55
2023/05/05 03:15:01;;;;;;;2.90;2.38;;;;;;;17.55;60.74;101460.75;6213418;23;20001;-54
2023/05/05 03:17:29;;;;;;;2.65;2.45;;;;;;;17.55;60.96;101458.06;6213137;23;20009;-55
2023/05/05 03:19:55;;;;;;;3.00;2.20;;;;;;;17.55;60.79;101466.13;6213336;23;20088;-55
2023/05/05 03:22:21;;;;;;;2.83;2.45;;;;;;;17.55;60.73;101467.94;6213107;23;20032;-55
2023/05/05 03:24:50;;;;;;;2.40;2.20;;;;;;;17.54;60.83;101464.41;6212765;23;20008;-55
2023/05/05 03:27:15;;;;;;;2.40;2.20;;;;;;;17.54;60.77;101469.78;6213086;23;20036;-54
2023/05/05 03:29:41;;;;;;;2.88;2.03;;;;;;;17.54;60.87;101474.34;6212925;23;20423;-55
2023/05/05 03:32:07;;;;;;;2.38;2.10;;;;;;;17.54;60.82;101477.03;6213470;23;20427;-55
2023/05/05 03:34:34;;;;;;;2.28;2.08;;;;;;;17.53;60.85;101473.47;6212661;23;20008;-55
2023/05/05 03:36:59;;;;;;;2.00;1.80;;;;;;;17.54;60.53;101471.66;6213171;23;20331;-55
2023/05/05 03:39:25;;;;;;;2.20;2.00;;;;;;;17.54;61.01;101479.72;6186260;23;20039;-55
2023/05/05 03:41:50;;;;;;;2.22;1.77;;;;;;;17.54;60.57;101483.25;6212877;23;20438;-55
2023/05/05 03:44:15;;;;;;;2.13;1.88;;;;;;;17.54;60.58;101479.72;6212640;23;20004;-54
2023/05/05 03:46:41;;;;;;;2.22;2.03;;;;;;;17.54;60.54;101471.66;6212511;23;20027;-55
2023/05/05 03:49:08;;;;;;;2.22;2.03;;;;;;;17.53;60.52;101475.31;6213338;23;20425;-55
2023/05/05 03:51:34;;;;;;;2.10;1.90;;;;;;;17.53;60.53;101484.22;6213368;23;20011;-55
2023/05/05 03:53:59;;;;;;;1.80;1.70;;;;;;;17.53;60.40;101484.22;6212692;23;20008;-54
2023/05/05 03:56:25;;;;;;;2.65;1.98;;;;;;;17.53;60.47;101483.38;6212677;23;20092;-55
2023/05/05 03:58:51;;;;;;;3.33;2.30;;;;;;;17.53;60.45;101488.78;6212738;23;20011;-54
2023/05/05 04:01:16;;;;;;;2.30;2.10;;;;;;;17.53;60.35;101494.16;6212808;23;20373;-55
2023/05/05 04:03:42;;;;;;;2.50;2.30;;;;;;;17.52;60.50;101493.31;6212697;23;20035;-54
2023/05/05 04:06:07;;;;;;;2.20;1.95;;;;;;;17.52;60.42;101504.06;6213354;23;20104;-54
2023/05/05 04:08:33;;;;;;;2.53;2.00;;;;;;;17.53;60.16;101502.22;6212282;23;20036;-55
2023/05/05 04:11:01;;;;;;;2.58;2.38;;;;;;;17.53;60.30;101508.47;6212577;23;20004;-55
2023/05/05 04:13:26;;;;;;;2.50;2.30;;;;;;;17.51;60.30;101505.03;6212511;23;20009;-54
2023/05/05 04:15:51;;;;;;;2.40;2.20;;;;;;;17.52;60.23;101497.84;6186016;23;20015;-55
2023/05/05 04:18:17;;;;;;;2.80;2.20;;;;;;;17.52;60.19;101503.22;6212820;23;20058;-55
2023/05/05 04:20:42;;;;;;;3.85;2.28;;;;;;;17.52;59.86;101508.63;6212580;23;20005;-54
2023/05/05 04:23:08;;;;;;;2.53;2.20;;;;;;;17.52;60.26;101511.31;6213280;23;20011;-55
2023/05/05 04:25:33;;;;;;;4.03;2.40;;;;;;;17.51;60.16;101515.81;6212605;23;20083;-54
2023/05/05 04:27:58;;;;;;;3.53;2.63;;;;;;;17.51;59.90;101521.19;6212810;23;20009;-55
2023/05/05 04:30:24;;;;;;;3.33;2.88;;;;;;;17.50;59.97;101506.03;6212718;23;20036;-54
2023/05/05 04:32:49;;;;;;;3.00;2.70;;;;;;;17.50;59.89;101510.59;6186136;23;20024;-55
2023/05/05 04:35:14;;;;;;;3.58;2.40;;;;;;;17.51;59.95;101512.28;6212436;23;20059;-55
2023/05/05 04:37:40;;;;;;;2.88;2.67;;;;;;;17.50;60.02;101516.81;6213185;23;20008;-55
2023/05/05 04:40:06;;;;;;;2.55;2.35;;;;;;;17.50;59.88;101519.50;6212604;23;20431;-54
2023/05/05 04:42:32;;;;;;;3.08;2.35;;;;;;;17.51;59.88;101526.59;6212467;23;20628;-54
2023/05/05 04:44:57;;;;;;;2.20;2.00;;;;;;;17.51;60.22;101518.50;6212555;23;20005;-55
2023/05/05 04:47:23;;;;;;;3.05;2.30;;;;;;;17.50;59.69;101514.13;6212134;23;20048;-54
2023/05/05 04:49:48;;;;;;;3.38;2.35;;;;;;;17.51;60.00;101515.81;6212827;23;20008;-55
2023/05/05 04:52:14;;;;;;;2.92;2.63;;;;;;;17.50;59.87;101522.19;6185865;23;20013;-55
2023/05/05 04:54:39;;;;;;;2.78;2.28;;;;;;;17.50;60.29;101526.75;6213220;23;20004;-54
2023/05/05 04:57:05;;;;;;;2.38;2.17;;;;;;;17.50;60.14;101519.50;6212383;23;20083;-54
2023/05/05 04:59:30;;;;;;;2.78;2.55;;;;;;;17.51;60.13;101523.03;6212032;23;20008;-55
2023/05/05 05:01:56;;;;;;;2.22;2.10;;;;;;;17.50;60.49;101519.50;6212712;23;20004;-54
2023/05/05 05:04:21;;;;;;;2.63;2.42;;;;;;;17.50;60.41;101511.44;6212305;23;20032;-54
2023/05/05 05:06:47;;;;;;;2.47;2.28;;;;;;;17.51;60.73;101514.97;6212308;23;20004;-55
2023/05/05 05:09:12;;;;;;;2.55;2.20;;;;;;;17.51;60.57;101520.34;6212926;23;20012;-55
2023/05/05 05:11:37;;;;;;;2.78;2.15;;;;;;;17.50;60.69;101505.19;6212783;23;20029;-54
2023/05/05 05:14:03;;;;;;;2.38;2.17;;;;;;;17.51;60.62;101504.19;6212258;23;20075;-54
2023/05/05 05:16:28;;;;;;;3.10;2.50;;;;;;;17.50;60.80;101508.75;6212500;23;20008;-54
2023/05/05 05:18:53;;;;;;;2.40;2.17;;;;;;;17.51;60.73;101506.88;6185647;23;20088;-54
2023/05/05 05:21:19;;;;;;;3.20;2.50;;;;;;;17.50;60.76;101508.75;6214073;23;20004;-55
2023/05/05 05:23:44;;;;;;;2.58;2.38;;;;;;;17.51;60.74;101506.88;6214170;23;20429;-54
2023/05/05 05:26:10;;;;;;;3.20;2.15;;;;;;;17.51;60.94;101510.44;6215088;23;20004;-55
2023/05/05 05:28:35;;;;;;;2.47;2.28;;;;;;;17.50;61.28;101511.44;6214372;23;20008;-54
2023/05/05 05:31:01;;;;;;;2.67;2.47;;;;;;;17.52;60.95;101511.31;6213902;23;20009;-55
2023/05/05 05:33:26;;;;;;;2.50;2.30;;;;;;;17.50;60.82;101507.88;6214241;23;20009;-55
2023/05/05 05:35:52;;;;;;;2.17;1.98;;;;;;;17.50;61.14;101511.44;6214111;23;20091;-54
2023/05/05 05:38:17;;;;;;;2.25;2.05;;;;;;;17.51;61.03;101506.88;6214032;23;20008;-55
2023/05/05 05:40:43;;;;;;;2.45;2.17;;;;;;;17.51;60.86;101518.50;6214800;23;20012;-55
2023/05/05 05:43:08;;;;;;;2.10;1.95;;;;;;;17.52;61.07;101527.47;6213946;23;20378;-54
2023/05/05 05:45:33;;;;;;;2.22;2.03;;;;;;;17.52;61.04;101525.63;6213747;23;20100;-54
2023/05/05 05:47:59;;;;;;;3.42;2.30;;;;;;;17.52;60.66;101525.63;6214108;23;20420;-55
2023/05/05 05:50:27;;;;;;;2.30;2.10;;;;;;;17.52;60.96;101525.63;6214211;23;20035;-54
2023/05/05 05:52:52;;;;;;;5.32;1.95;;;;;;;17.53;61.25;101540.78;6213797;23;20057;-54
2023/05/05 05:55:18;;;;;;;4.10;2.70;;;;;;;17.54;61.73;101555.97;6213900;23;20009;-55
2023/05/05 05:57:43;;;;;;;12.98;2.95;;;;;;;17.55;61.95;101564.88;6212758;23;20315;-55
2023/05/05 06:00:09;;;;;;;7.97;3.40;;;;;;;17.55;62.60;101567.56;6214003;23;20005;-55
2023/05/05 06:02:34;;;;;;;9.07;3.90;;;;;;;17.56;62.80;101572.84;6212907;23;20008;-55
2023/05/05 06:05:00;;;;;;;7.95;2.97;;;;;;;17.58;62.81;101572.72;6213704;23;20423;-55
2023/05/05 06:07:25;;;;;;;4.15;2.85;;;;;;;17.58;62.69;101578.97;6214537;23;20016;-55
2023/05/05 06:09:51;;;;;;;6.60;3.65;;;;;;;17.58;62.88;101578.97;6214053;23;20009;-55
2023/05/05 06:12:16;;;;;;;5.90;2.80;;;;;;;17.59;62.91;101586.06;6214010;23;20084;-55
2023/05/05 06:14:41;;;;;;;5.63;2.60;;;;;;;17.60;62.78;101586.91;6214839;23;20008;-55
2023/05/05 06:17:10;;;;;;;5.65;2.97;;;;;;;17.62;63.03;101594.88;6187838;23;20442;-55
2023/05/05 06:19:38;;;;;;;8.65;3.33;;;;;;;17.62;62.86;101586.78;6215133;23;20482;-55
2023/05/05 06:22:04;;;;;;;13.05;3.38;;;;;;;17.62;62.84;101593.03;6214475;23;20005;-55
2023/05/05 06:24:30;;;;;;;12.20;3.40;;;;;;;17.63;62.85;101601.97;6213621;23;20031;-55
2023/05/05 06:26:58;;;;;;;12.07;3.47;;;;;;;17.62;63.06;101601.09;6213616;23;20095;-55
2023/05/05 06:29:23;;;;;;;9.98;3.13;;;;;;;17.63;62.79;101599.25;6213620;23;20005;-55
2023/05/05 06:31:49;;;;;;;5.05;3.30;;;;;;;17.63;62.59;101597.44;6212639;23;20088;-55
2023/05/05 06:34:14;;;;;;;11.10;3.55;;;;;;;17.65;62.42;101591.91;6214173;23;20326;-55
2023/05/05 06:36:40;;;;;;;6.05;3.50;;;;;;;17.64;62.48;101601.00;6213625;23;20058;-55
2023/05/05 06:39:05;;;;;;;7.25;3.85;;;;;;;17.65;62.31;101591.91;6213384;23;20039;-55
2023/05/05 06:41:31;;;;;;;8.98;3.83;;;;;;;17.64;62.37;101596.44;6214679;23;20004;-55
2023/05/05 06:43:56;;;;;;;9.70;3.65;;;;;;;17.65;62.15;101594.59;6213302;23;20005;-55
2023/05/05 06:46:22;;;;;;;6.82;4.07;;;;;;;17.65;62.17;101603.56;6212537;23;20020;-54
2023/05/05 06:48:50;;;;;;;8.32;3.45;;;;;;;17.65;62.14;101594.59;6213624;23;20008;-55
2023/05/05 06:51:16;;;;;;;9.18;4.18;;;;;;;17.65;62.04;101598.19;6213765;23;20013;-55
2023/05/05 06:53:41;;;;;;;5.53;3.70;;;;;;;17.65;62.13;101595.47;6212978;23;20019;-55
2023/05/05 06:56:06;;;;;;;7.75;4.20;;;;;;;17.66;62.13;101602.56;6213334;23;20331;-55
2023/05/05 06:58:32;;;;;;;7.63;3.55;;;;;;;17.67;62.03;101603.41;6213101;23;20370;-55
2023/05/05 07:00:57;;;;;;;8.90;3.80;;;;;;;17.66;62.30;101601.72;6213013;23;20000;-55
2023/05/05 07:03:23;;;;;;;5.45;3.25;;;;;;;17.66;62.21;101599.03;6213410;23;20479;-55
2023/05/05 07:05:52;;;;;;;5.32;3.38;;;;;;;17.67;62.17;101600.72;6213808;23;20335;-55
2023/05/05 07:08:18;;;;;;;5.43;3.58;;;;;;;17.67;62.07;101592.63;6213582;23;20429;-55
2023/05/05 07:10:43;;;;;;;7.93;3.65;;;;;;;17.67;62.17;101600.72;6213759;23;20008;-55
2023/05/05 07:13:13;;;;;;;4.72;3.75;;;;;;;17.68;62.21;101607.84;6213384;23;20483;-55
2023/05/05 07:15:45;;;;;;;7.80;3.40;;;;;;;17.69;62.05;101604.16;6213488;23;20009;-55
2023/05/05 07:18:15;;;;;;;8.20;3.70;;;;;;;17.68;62.11;101607.84;6213361;23;20083;-55
2023/05/05 07:20:42;;;;;;;3.13;2.70;;;;;;;17.68;62.27;101618.59;6212980;23;20000;-55
2023/05/05 07:23:07;;;;;;;5.28;3.05;;;;;;;17.70;62.17;101624.72;6213373;23;20078;-55
2023/05/05 07:25:33;;;;;;;5.60;3.63;;;;;;;17.69;62.26;101615.78;6213295;23;20797;-55
2023/05/05 07:27:58;;;;;;;5.10;3.58;;;;;;;17.70;62.18;101622.03;6212806;23;20083;-55
2023/05/05 07:30:26;;;;;;;9.38;4.50;;;;;;;17.70;62.16;101608.56;6213276;23;20016;-55
2023/05/05 07:32:52;;;;;;;6.60;3.75;;;;;;;17.71;62.25;101626.44;6212922;23;20005;-55
2023/05/05 07:35:17;;;;;;;6.95;3.92;;;;;;;17.71;62.10;101626.44;6213449;23;20087;-55
2023/05/05 07:37:45;;;;;;;8.10;3.60;;;;;;;17.72;62.16;101617.38;6212883;23;20004;-55
2023/05/05 07:40:12;;;;;;;4.97;2.92;;;;;;;17.72;62.24;101622.75;6213138;23;20309;-55
2023/05/05 07:42:37;;;;;;;5.05;3.65;;;;;;;17.72;62.17;101611.97;6212881;23;20597;-55
2023/05/05 07:45:04;;;;;;;5.25;2.80;;;;;;;17.73;62.09;101608.31;6212749;23;20035;-55
2023/05/05 07:47:29;;;;;;;6.75;3.28;;;;;;;17.73;62.27;101606.47;6212213;23;20021;-55
2023/05/05 07:49:55;;;;;;;4.07;3.08;;;;;;;17.73;62.08;101608.31;6213214;23;20009;-55
2023/05/05 07:52:20;;;;;;;5.97;3.42;;;;;;;17.72;62.11;101596.66;6212632;23;20047;-54
2023/05/05 07:54:47;;;;;;;4.55;3.22;;;;;;;17.72;62.13;101602.06;6213643;23;20456;-55
2023/05/05 07:57:12;;;;;;;6.60;3.45;;;;;;;17.74;62.08;101601.94;6213170;23;20067;-55
2023/05/05 07:59:42;;;;;;;5.55;3.20;;;;;;;17.74;62.03;101599.25;6212641;23;20012;-55
2023/05/05 08:02:08;;;;;;;5.18;3.45;;;;;;;17.74;62.16;101597.44;6212453;23;20008;-55
2023/05/05 08:04:33;;;;;;;3.45;2.88;;;;;;;17.74;62.04;101594.72;6213085;23;20020;-55
2023/05/05 08:06:59;;;;;;;4.85;3.13;;;;;;;17.75;62.01;101587.50;6212823;23;20012;-54
2023/05/05 08:09:24;;;;;;;3.20;2.90;;;;;;;17.76;61.99;101598.16;6213296;23;20008;-55
2023/05/05 08:11:49;;;;;;;5.50;3.22;;;;;;;17.77;62.00;101594.47;6213148;23;20479;-55
2023/05/05 08:14:15;;;;;;;5.15;3.22;;;;;;;17.78;62.10;101598.00;6213595;23;20083;-55
2023/05/05 08:16:40;;;;;;;6.18;3.13;;;;;;;17.78;61.97;101606.09;6212070;23;20013;-55
2023/05/05 08:19:06;;;;;;;4.05;3.28;;;;;;;17.78;62.03;101601.56;6212546;23;20008;-55
2023/05/05 08:21:31;;;;;;;3.45;2.88;;;;;;;17.79;62.03;101605.13;6212150;23;20091;-55
2023/05/05 08:23:56;;;;;;;4.90;2.83;;;;;;;17.82;61.97;101612.06;6212406;23;20009;-55
2023/05/05 08:26:22;;;;;;;3.50;2.65;;;;;;;17.82;62.14;101606.69;6212160;23;20087;-55
2023/05/05 08:28:48;;;;;;;3.45;2.58;;;;;;;17.82;62.09;101609.38;6212826;23;20422;-55
2023/05/05 08:31:13;;;;;;;8.07;3.25;;;;;;;17.82;62.11;101615.66;6211328;23;20008;-55
2023/05/05 08:33:38;;;;;;;3.65;2.70;;;;;;;17.82;62.10;101609.38;6211947;23;20023;-55
2023/05/05 08:36:04;;;;;;;10.15;3.10;;;;;;;17.83;62.29;101614.66;6212582;23;20005;-55
2023/05/05 08:38:29;;;;;;;3.80;3.03;;;;;;;17.85;62.06;101611.88;6213441;23;20005;-55
2023/05/05 08:40:55;;;;;;;6.43;2.97;;;;;;;17.86;62.19;101618.94;6212739;23;20041;-54
2023/05/05 08:43:22;;;;;;;4.55;2.75;;;;;;;17.85;62.25;101615.41;6212927;23;20480;-55
2023/05/05 08:45:48;;;;;;;7.43;2.75;;;;;;;17.85;62.32;101617.25;6212957;23;20004;-54
2023/05/05 08:48:18;;;;;;;4.28;2.65;;;;;;;17.85;62.67;101618.09;6212211;23;20078;-54
2023/05/05 08:50:48;;;;;;;5.72;3.03;;;;;;;17.85;62.57;101615.41;6212387;23;20012;-55
2023/05/05 08:53:26;;;;;;;7.20;3.08;;;;;;;17.87;62.78;101617.97;6212121;23;20008;-55
2023/05/05 08:55:55;;;;;;;4.63;2.88;;;;;;;17.87;62.82;101609.91;6213212;23;20007;-54
2023/05/05 08:58:23;;;;;;;4.90;3.20;;;;;;;17.87;62.62;101612.59;6213831;23;20008;-55
2023/05/05 09:00:50;;;;;;;4.38;2.67;;;;;;;17.87;62.76;101616.13;6212609;23;20073;-54
2023/05/05 09:03:16;;;;;;;7.90;2.80;;;;;;;17.87;62.63;101620.69;6211709;23;20004;-55
2023/05/05 09:05:43;;;;;;;5.47;2.53;;;;;;;17.86;62.92;101606.34;6211985;23;20407;-55
2023/05/05 09:08:12;;;;;;;3.85;2.60;;;;;;;17.86;62.56;101609.06;6211700;23;20000;-56
2023/05/05 09:10:41;;;;;;;6.45;2.45;;;;;;;17.86;62.47;101602.78;6212182;23;20069;-56
2023/05/05 09:13:06;;;;;;;4.13;2.58;;;;;;;17.85;62.24;101607.31;6211823;23;20013;-55
2023/05/05 09:15:32;;;;;;;3.45;2.15;;;;;;;17.84;62.45;101613.72;6212142;23;20015;-55
2023/05/05 09:17:58;;;;;;;5.18;2.40;;;;;;;17.84;62.27;101611.03;6213236;23;20072;-56
2023/05/05 09:20:32;;;;;;;6.60;2.50;;;;;;;17.84;62.32;101616.41;6213182;23;20359;-55
2023/05/05 09:23:06;;;;;;;4.60;2.47;;;;;;;17.82;62.23;101615.66;6212920;23;20367;-56
2023/05/05 09:25:31;;;;;;;5.38;2.28;;;;;;;17.83;62.29;101616.50;6212859;23;20001;-56
2023/05/05 09:27:57;;;;;;;4.30;2.65;;;;;;;17.83;62.17;101621.88;6212659;23;20008;-56
2023/05/05 09:30:24;;;;;;;4.30;2.13;;;;;;;17.82;62.09;101626.44;6213169;23;20004;-56
2023/05/05 09:32:52;;;;;;;3.35;2.47;;;;;;;17.82;62.09;101634.50;6213504;23;20008;-56
2023/05/05 09:35:18;;;;;;;3.42;2.45;;;;;;;17.82;62.22;101622.84;6212731;23;20011;-56
2023/05/05 09:37:44;;;;;;;5.15;2.28;;;;;;;17.81;62.12;101629.25;6212542;23;20018;-56
2023/05/05 09:40:11;;;;;;;3.47;2.53;;;;;;;17.81;61.95;101631.94;6212943;23;20028;-56
2023/05/05 09:42:38;;;;;;;3.72;2.60;;;;;;;17.81;62.03;101640.84;6212816;23;20055;-56
2023/05/05 09:45:24;;;;;;;6.15;2.50;;;;;;;17.83;61.97;101621.88;6212712;23;20453;-56
2023/05/05 09:47:49;;;;;;;3.63;2.08;;;;;;;17.81;61.89;101615.78;6212908;23;20012;-56
2023/05/05 09:50:17;;;;;;;2.33;2.05;;;;;;;17.80;61.98;101617.63;6212549;23;20016;-56
2023/05/05 09:52:59;;;;;;;3.15;2.30;;;;;;;17.79;62.13;101611.34;6212475;23;20008;-56
2023/05/05 09:55:25;;;;;;;2.95;1.77;;;;;;;17.79;61.82;101616.75;6212932;23;20084;-55
2023/05/05 09:57:51;;;;;;;2.63;2.40;;;;;;;17.78;61.91;101612.34;6212389;23;20508;-56
2023/05/05 10:00:16;;;;;;;3.78;2.45;;;;;;;17.78;61.88;101617.72;6211399;23;20412;-56
2023/05/05 10:02:42;;;;;;;2.42;1.98;;;;;;;17.79;61.73;101615.88;6211806;23;20001;-56
2023/05/05 10:05:15;;;;;;;2.95;2.13;;;;;;;17.78;61.86;101611.47;6211263;23;20036;-56
2023/05/05 10:07:43;;;;;;;2.60;1.83;;;;;;;17.78;61.88;101608.78;6213149;23;20005;-56
2023/05/05 10:10:12;;;;;;;3.45;2.05;;;;;;;17.78;61.88;101611.47;6213655;23;20016;-56
2023/05/05 10:12:38;;;;;;;3.22;2.00;;;;;;;17.79;61.84;101613.19;6213218;23;20004;-56
2023/05/05 10:15:05;;;;;;;3.50;2.10;;;;;;;17.78;61.83;101617.72;6214351;23;20005;-55
2023/05/05 10:17:34;;;;;;;2.75;2.05;;;;;;;17.79;62.11;101611.34;6187366;23;20032;-54
2023/05/05 10:20:00;;;;;;;3.75;1.98;;;;;;;17.80;62.18;101614.91;6213329;23;20007;-54
2023/05/05 10:22:29;;;;;;;5.13;2.22;;;;;;;17.83;62.66;101614.66;6212968;23;20086;-54
2023/05/05 10:25:04;;;;;;;4.20;2.15;;;;;;;17.84;63.76;101616.41;6214339;23;20014;-54
2023/05/05 10:27:38;;;;;;;6.85;2.70;;;;;;;17.86;63.92;101619.84;6212272;23;20079;-53
2023/05/05 10:30:05;;;;;;;5.75;2.40;;;;;;;17.88;64.74;101615.16;6213642;23;20419;-55
2023/05/05 10:32:39;;;;;;;6.15;2.40;;;;;;;17.88;64.28;101611.63;6213575;23;20335;-56
2023/05/05 10:35:07;;;;;;;5.50;2.22;;;;;;;17.87;64.21;101613.44;6213514;23;20012;-56
2023/05/05 10:37:35;;;;;;;5.32;2.30;;;;;;;17.88;64.16;101625.09;6213855;23;20035;-55
2023/05/05 10:40:01;;;;;;;7.90;2.30;;;;;;;17.86;64.07;101627.91;6213576;23;20008;-55
2023/05/05 10:42:27;;;;;;;3.67;2.25;;;;;;;17.86;63.76;101630.59;6213594;23;20032;-56
2023/05/05 10:44:52;;;;;;;6.10;2.53;;;;;;;17.86;63.64;101641.38;6214172;23;20005;-55
2023/05/05 10:47:19;;;;;;;2.60;1.92;;;;;;;17.86;63.70;101636.00;6213224;23;20016;-55
2023/05/05 10:50:14;;;;;;;2.50;2.15;;;;;;;17.88;63.34;101647.50;6213525;23;20004;-56
2023/05/05 10:53:36;;;;;;;5.47;2.10;;;;;;;17.89;63.50;101651.03;6213206;23;20004;-56
2023/05/05 10:56:04;;;;;;;;;;;;;;;17.95;63.02;101639.75;6063556;23;20477;-56
2023/05/05 10:58:40;;;;;;;2.90;2.10;;;;;;;17.88;63.46;101644.81;6062526;23;19928;-56
2023/05/05 11:01:06;;;;;;;5.40;2.10;;;;;;;17.86;63.17;101636.00;6145121;23;20075;-55
2023/05/05 11:03:32;;;;;;;4.55;2.17;;;;;;;17.85;63.45;101631.56;6213359;23;20427;-55
2023/05/05 11:06:04;;;;;;;6.32;2.35;;;;;;;17.86;63.00;101643.19;6212697;23;20406;-55
2023/05/05 11:08:30;;;;;;;;;;;;;;;17.93;62.74;101650.69;6213377;23;20009;-55
2023/05/05 11:10:55;;;;;;;3.25;2.00;;;;;;;17.86;63.15;101652.16;6213596;23;19904;-55
2023/05/05 11:13:21;;;;;;;8.40;1.90;;;;;;;17.85;62.86;101653.13;6212947;23;20078;-55
2023/05/05 11:15:48;;;;;;;4.18;1.73;;;;;;;17.83;63.05;101655.06;6212784;23;20008;-55
2023/05/05 11:18:35;;;;;;;2.45;1.70;;;;;;;17.87;63.02;101664.63;6213599;23;20301;-55
2023/05/05 11:21:14;;;;;;;2.75;2.00;;;;;;;17.84;62.87;101658.59;6212749;23;20011;-56
2023/05/05 11:23:50;;;;;;;5.43;2.20;;;;;;;17.85;62.92;101663.91;6212440;23;20074;-56
2023/05/05 11:26:17;;;;;;;4.55;2.00;;;;;;;17.82;63.06;101658.75;6213111;23;20004;-56
2023/05/05 11:28:58;;;;;;;2.50;1.98;;;;;;;17.84;63.14;101656.81;6213003;23;20000;-56
2023/05/05 11:31:23;;;;;;;2.88;2.10;;;;;;;17.83;62.91;101657.75;6212442;23;20001;-56